sensor_id;sensor_type;location;lat;lon;timestamp;temperature;humidity
64817;DHT22;53289;45.602;11.904;2022-11-21T00:00:03;5.90;78.30
64817;DHT22;53289;45.602;11.904;2022-11-21T00:02:30;5.90;78.20
64817;DHT22;53289;45.602;11.904;2022-11-21T00:04:55;5.90;78.30
64817;DHT22;53289;45.602;11.904;2022-11-21T00:07:21;6.00;78.40
64817;DHT22;53289;45.602;11.904;2022-11-21T00:09:47;6.00;78.50
64817;DHT22;53289;45.602;11.904;2022-11-21T00:12:15;6.10;78.60
64817;DHT22;53289;45.602;11.904;2022-11-21T00:14:41;6.10;78.30
64817;DHT22;53289;45.602;11.904;2022-11-21T00:17:07;6.20;78.30
64817;DHT22;53289;45.602;11.904;2022-11-21T00:19:33;6.20;78.60
64817;DHT22;53289;45.602;11.904;2022-11-21T00:21:59;6.20;78.40
64817;DHT22;53289;45.602;11.904;2022-11-21T00:24:25;6.20;78.20
64817;DHT22;53289;45.602;11.904;2022-11-21T00:26:51;6.20;78.30
64817;DHT22;53289;45.602;11.904;2022-11-21T00:29:16;6.10;78.40
64817;DHT22;53289;45.602;11.904;2022-11-21T00:31:42;6.10;78.40
64817;DHT22;53289;45.602;11.904;2022-11-21T00:34:08;6.10;78.50
64817;DHT22;53289;45.602;11.904;2022-11-21T00:36:34;6.10;78.40
64817;DHT22;53289;45.602;11.904;2022-11-21T00:39:00;6.10;78.30
64817;DHT22;53289;45.602;11.904;2022-11-21T00:41:26;6.00;78.50
64817;DHT22;53289;45.602;11.904;2022-11-21T00:43:52;6.00;78.50
64817;DHT22;53289;45.602;11.904;2022-11-21T00:46:18;6.10;78.50
64817;DHT22;53289;45.602;11.904;2022-11-21T00:48:44;6.10;78.60
64817;DHT22;53289;45.602;11.904;2022-11-21T00:51:10;6.10;78.60
64817;DHT22;53289;45.602;11.904;2022-11-21T00:53:36;6.20;78.60
64817;DHT22;53289;45.602;11.904;2022-11-21T00:56:02;6.20;78.60
64817;DHT22;53289;45.602;11.904;2022-11-21T00:58:28;6.30;78.70
64817;DHT22;53289;45.602;11.904;2022-11-21T01:01:05;6.40;78.40
64817;DHT22;53289;45.602;11.904;2022-11-21T01:03:32;6.40;78.30
64817;DHT22;53289;45.602;11.904;2022-11-21T01:06:03;6.50;78.30
64817;DHT22;53289;45.602;11.904;2022-11-21T01:08:30;6.50;78.30
64817;DHT22;53289;45.602;11.904;2022-11-21T01:11:00;6.60;78.20
64817;DHT22;53289;45.602;11.904;2022-11-21T01:13:26;6.60;78.20
64817;DHT22;53289;45.602;11.904;2022-11-21T01:15:52;6.70;78.10
64817;DHT22;53289;45.602;11.904;2022-11-21T01:18:18;6.70;78.00
64817;DHT22;53289;45.602;11.904;2022-11-21T01:20:44;6.70;78.10
64817;DHT22;53289;45.602;11.904;2022-11-21T01:23:10;6.70;78.20
64817;DHT22;53289;45.602;11.904;2022-11-21T01:25:36;6.80;78.00
64817;DHT22;53289;45.602;11.904;2022-11-21T01:28:02;6.80;78.20
64817;DHT22;53289;45.602;11.904;2022-11-21T01:30:27;6.80;78.20
64817;DHT22;53289;45.602;11.904;2022-11-21T01:32:53;6.80;78.00
64817;DHT22;53289;45.602;11.904;2022-11-21T01:35:19;6.80;78.00
64817;DHT22;53289;45.602;11.904;2022-11-21T01:37:48;6.80;78.10
64817;DHT22;53289;45.602;11.904;2022-11-21T01:40:14;6.80;78.30
64817;DHT22;53289;45.602;11.904;2022-11-21T01:43:03;6.80;78.10
64817;DHT22;53289;45.602;11.904;2022-11-21T01:48:31;6.80;78.10
64817;DHT22;53289;45.602;11.904;2022-11-21T01:53:35;6.70;78.50
64817;DHT22;53289;45.602;11.904;2022-11-21T01:56:03;6.70;78.50
64817;DHT22;53289;45.602;11.904;2022-11-21T01:58:32;6.70;78.50
64817;DHT22;53289;45.602;11.904;2022-11-21T02:00:59;6.70;78.40
64817;DHT22;53289;45.602;11.904;2022-11-21T02:03:28;6.80;78.50
64817;DHT22;53289;45.602;11.904;2022-11-21T02:05:56;6.80;78.40
64817;DHT22;53289;45.602;11.904;2022-11-21T02:08:24;6.80;78.30
64817;DHT22;53289;45.602;11.904;2022-11-21T02:11:12;6.90;78.30
64817;DHT22;53289;45.602;11.904;2022-11-21T02:13:40;6.90;78.20
64817;DHT22;53289;45.602;11.904;2022-11-21T02:16:07;6.90;78.20
64817;DHT22;53289;45.602;11.904;2022-11-21T02:18:34;6.90;78.20
64817;DHT22;53289;45.602;11.904;2022-11-21T02:21:09;6.90;78.20
64817;DHT22;53289;45.602;11.904;2022-11-21T02:24:41;6.90;78.20
64817;DHT22;53289;45.602;11.904;2022-11-21T02:26:47;6.90;78.20
64817;DHT22;53289;45.602;11.904;2022-11-21T02:29:14;6.90;78.20
64817;DHT22;53289;45.602;11.904;2022-11-21T02:31:40;6.90;78.30
64817;DHT22;53289;45.602;11.904;2022-11-21T02:34:06;6.90;78.30
64817;DHT22;53289;45.602;11.904;2022-11-21T02:39:04;6.80;78.30
64817;DHT22;53289;45.602;11.904;2022-11-21T02:41:33;6.80;78.30
64817;DHT22;53289;45.602;11.904;2022-11-21T02:44:08;6.70;78.40
64817;DHT22;53289;45.602;11.904;2022-11-21T02:46:35;6.70;78.60
64817;DHT22;53289;45.602;11.904;2022-11-21T02:49:10;6.70;78.70
64817;DHT22;53289;45.602;11.904;2022-11-21T02:51:36;6.70;78.70
64817;DHT22;53289;45.602;11.904;2022-11-21T02:54:02;6.70;78.70
64817;DHT22;53289;45.602;11.904;2022-11-21T02:56:28;6.70;78.90
64817;DHT22;53289;45.602;11.904;2022-11-21T02:58:54;6.70;78.80
64817;DHT22;53289;45.602;11.904;2022-11-21T03:01:20;6.80;78.90
64817;DHT22;53289;45.602;11.904;2022-11-21T03:03:45;6.80;78.90
64817;DHT22;53289;45.602;11.904;2022-11-21T03:06:11;6.70;78.80
64817;DHT22;53289;45.602;11.904;2022-11-21T03:08:37;6.70;78.70
64817;DHT22;53289;45.602;11.904;2022-11-21T03:11:03;6.70;78.80
64817;DHT22;53289;45.602;11.904;2022-11-21T03:13:29;6.60;78.60
64817;DHT22;53289;45.602;11.904;2022-11-21T03:15:55;6.50;78.70
64817;DHT22;53289;45.602;11.904;2022-11-21T03:18:21;6.40;78.80
64817;DHT22;53289;45.602;11.904;2022-11-21T03:20:48;6.30;78.90
64817;DHT22;53289;45.602;11.904;2022-11-21T03:23:13;6.20;79.00
64817;DHT22;53289;45.602;11.904;2022-11-21T03:25:39;6.20;79.10
64817;DHT22;53289;45.602;11.904;2022-11-21T03:28:05;6.10;79.10
64817;DHT22;53289;45.602;11.904;2022-11-21T03:30:32;6.10;79.20
64817;DHT22;53289;45.602;11.904;2022-11-21T03:32:57;6.10;79.30
64817;DHT22;53289;45.602;11.904;2022-11-21T03:35:24;6.10;79.20
64817;DHT22;53289;45.602;11.904;2022-11-21T03:37:50;5.90;79.20
64817;DHT22;53289;45.602;11.904;2022-11-21T03:40:16;5.90;79.10
64817;DHT22;53289;45.602;11.904;2022-11-21T03:42:42;5.70;79.10
64817;DHT22;53289;45.602;11.904;2022-11-21T03:45:08;5.60;79.50
64817;DHT22;53289;45.602;11.904;2022-11-21T03:47:35;5.60;79.60
64817;DHT22;53289;45.602;11.904;2022-11-21T03:50:01;5.40;79.50
64817;DHT22;53289;45.602;11.904;2022-11-21T03:52:27;5.30;79.50
64817;DHT22;53289;45.602;11.904;2022-11-21T03:54:53;5.20;79.60
64817;DHT22;53289;45.602;11.904;2022-11-21T03:57:19;5.10;79.80
64817;DHT22;53289;45.602;11.904;2022-11-21T03:59:44;5.00;79.90
64817;DHT22;53289;45.602;11.904;2022-11-21T04:02:10;4.90;80.10
64817;DHT22;53289;45.602;11.904;2022-11-21T04:04:37;4.90;80.20
64817;DHT22;53289;45.602;11.904;2022-11-21T04:07:02;4.90;80.20
64817;DHT22;53289;45.602;11.904;2022-11-21T04:09:28;4.90;80.40
64817;DHT22;53289;45.602;11.904;2022-11-21T04:11:54;4.90;80.30
64817;DHT22;53289;45.602;11.904;2022-11-21T04:14:20;4.80;80.40
64817;DHT22;53289;45.602;11.904;2022-11-21T04:16:46;4.80;80.30
64817;DHT22;53289;45.602;11.904;2022-11-21T04:19:12;4.70;80.40
64817;DHT22;53289;45.602;11.904;2022-11-21T04:21:38;4.70;80.40
64817;DHT22;53289;45.602;11.904;2022-11-21T04:24:04;4.60;80.40
64817;DHT22;53289;45.602;11.904;2022-11-21T04:26:31;4.60;80.50
64817;DHT22;53289;45.602;11.904;2022-11-21T04:28:57;4.50;80.30
64817;DHT22;53289;45.602;11.904;2022-11-21T04:31:23;4.50;80.40
64817;DHT22;53289;45.602;11.904;2022-11-21T04:33:48;4.40;80.50
64817;DHT22;53289;45.602;11.904;2022-11-21T04:36:14;4.40;80.50
64817;DHT22;53289;45.602;11.904;2022-11-21T04:38:40;4.40;80.50
64817;DHT22;53289;45.602;11.904;2022-11-21T04:41:06;4.30;80.50
64817;DHT22;53289;45.602;11.904;2022-11-21T04:43:32;4.20;80.50
64817;DHT22;53289;45.602;11.904;2022-11-21T04:45:58;4.10;80.70
64817;DHT22;53289;45.602;11.904;2022-11-21T04:48:24;4.10;80.80
64817;DHT22;53289;45.602;11.904;2022-11-21T04:50:50;4.10;80.90
64817;DHT22;53289;45.602;11.904;2022-11-21T04:53:15;4.10;80.90
64817;DHT22;53289;45.602;11.904;2022-11-21T04:55:42;4.10;80.90
64817;DHT22;53289;45.602;11.904;2022-11-21T04:58:08;4.00;81.00
64817;DHT22;53289;45.602;11.904;2022-11-21T05:00:34;4.00;81.00
64817;DHT22;53289;45.602;11.904;2022-11-21T05:03:02;4.00;80.90
64817;DHT22;53289;45.602;11.904;2022-11-21T05:05:28;3.90;80.90
64817;DHT22;53289;45.602;11.904;2022-11-21T05:07:54;3.90;80.90
64817;DHT22;53289;45.602;11.904;2022-11-21T05:10:20;3.90;80.90
64817;DHT22;53289;45.602;11.904;2022-11-21T05:12:46;3.90;81.10
64817;DHT22;53289;45.602;11.904;2022-11-21T05:15:30;3.80;81.10
64817;DHT22;53289;45.602;11.904;2022-11-21T05:17:59;3.70;81.10
64817;DHT22;53289;45.602;11.904;2022-11-21T05:20:25;3.70;81.10
64817;DHT22;53289;45.602;11.904;2022-11-21T05:22:51;3.60;81.10
64817;DHT22;53289;45.602;11.904;2022-11-21T05:25:18;3.60;81.30
64817;DHT22;53289;45.602;11.904;2022-11-21T05:27:43;3.60;81.20
64817;DHT22;53289;45.602;11.904;2022-11-21T05:30:11;3.60;81.30
64817;DHT22;53289;45.602;11.904;2022-11-21T05:32:37;3.60;81.20
64817;DHT22;53289;45.602;11.904;2022-11-21T05:35:03;3.50;81.20
64817;DHT22;53289;45.602;11.904;2022-11-21T05:37:28;3.50;81.30
64817;DHT22;53289;45.602;11.904;2022-11-21T05:39:54;3.50;81.30
64817;DHT22;53289;45.602;11.904;2022-11-21T05:42:20;3.50;81.20
64817;DHT22;53289;45.602;11.904;2022-11-21T05:45:07;3.50;81.20
64817;DHT22;53289;45.602;11.904;2022-11-21T05:47:33;3.40;81.30
64817;DHT22;53289;45.602;11.904;2022-11-21T05:49:59;3.40;81.30
64817;DHT22;53289;45.602;11.904;2022-11-21T05:52:27;3.40;81.30
64817;DHT22;53289;45.602;11.904;2022-11-21T05:54:53;3.40;81.20
64817;DHT22;53289;45.602;11.904;2022-11-21T05:57:19;3.40;81.20
64817;DHT22;53289;45.602;11.904;2022-11-21T05:59:44;3.40;81.20
64817;DHT22;53289;45.602;11.904;2022-11-21T06:02:10;3.40;81.20
64817;DHT22;53289;45.602;11.904;2022-11-21T06:04:55;3.40;81.20
64817;DHT22;53289;45.602;11.904;2022-11-21T06:07:20;3.30;81.20
64817;DHT22;53289;45.602;11.904;2022-11-21T06:09:47;3.30;81.20
64817;DHT22;53289;45.602;11.904;2022-11-21T06:12:12;3.20;81.20
64817;DHT22;53289;45.602;11.904;2022-11-21T06:14:38;3.10;81.10
64817;DHT22;53289;45.602;11.904;2022-11-21T06:17:04;3.10;81.10
64817;DHT22;53289;45.602;11.904;2022-11-21T06:19:30;3.00;81.10
64817;DHT22;53289;45.602;11.904;2022-11-21T06:21:56;3.00;81.20
64817;DHT22;53289;45.602;11.904;2022-11-21T06:24:22;2.90;81.30
64817;DHT22;53289;45.602;11.904;2022-11-21T06:26:48;2.90;81.40
64817;DHT22;53289;45.602;11.904;2022-11-21T06:29:14;2.90;81.50
64817;DHT22;53289;45.602;11.904;2022-11-21T06:31:41;2.90;81.60
64817;DHT22;53289;45.602;11.904;2022-11-21T06:34:07;2.90;81.60
64817;DHT22;53289;45.602;11.904;2022-11-21T06:36:34;2.90;81.60
64817;DHT22;53289;45.602;11.904;2022-11-21T06:39:00;2.90;81.70
64817;DHT22;53289;45.602;11.904;2022-11-21T06:41:26;2.90;81.70
64817;DHT22;53289;45.602;11.904;2022-11-21T06:43:57;2.90;81.60
64817;DHT22;53289;45.602;11.904;2022-11-21T06:46:25;2.90;81.70
64817;DHT22;53289;45.602;11.904;2022-11-21T06:48:52;2.90;81.80
64817;DHT22;53289;45.602;11.904;2022-11-21T06:51:20;2.90;81.80
64817;DHT22;53289;45.602;11.904;2022-11-21T06:53:51;3.00;81.60
64817;DHT22;53289;45.602;11.904;2022-11-21T06:56:21;3.00;81.70
64817;DHT22;53289;45.602;11.904;2022-11-21T06:58:47;3.00;81.80
64817;DHT22;53289;45.602;11.904;2022-11-21T07:01:13;3.10;81.70
64817;DHT22;53289;45.602;11.904;2022-11-21T07:03:39;3.20;81.70
64817;DHT22;53289;45.602;11.904;2022-11-21T07:06:05;3.30;82.20
64817;DHT22;53289;45.602;11.904;2022-11-21T07:08:33;3.40;81.90
64817;DHT22;53289;45.602;11.904;2022-11-21T07:11:07;3.40;81.70
64817;DHT22;53289;45.602;11.904;2022-11-21T07:13:34;3.50;81.80
64817;DHT22;53289;45.602;11.904;2022-11-21T07:16:05;3.60;81.70
64817;DHT22;53289;45.602;11.904;2022-11-21T07:18:32;3.60;81.70
64817;DHT22;53289;45.602;11.904;2022-11-21T07:20:59;3.60;81.80
64817;DHT22;53289;45.602;11.904;2022-11-21T07:23:25;3.70;82.20
64817;DHT22;53289;45.602;11.904;2022-11-21T07:25:52;3.80;82.20
64817;DHT22;53289;45.602;11.904;2022-11-21T07:28:19;3.90;82.20
64817;DHT22;53289;45.602;11.904;2022-11-21T07:30:45;4.00;81.90
64817;DHT22;53289;45.602;11.904;2022-11-21T07:33:11;4.10;81.40
64817;DHT22;53289;45.602;11.904;2022-11-21T07:35:37;4.20;81.30
64817;DHT22;53289;45.602;11.904;2022-11-21T07:38:03;4.30;81.20
64817;DHT22;53289;45.602;11.904;2022-11-21T07:40:30;4.40;81.70
64817;DHT22;53289;45.602;11.904;2022-11-21T07:43:03;4.40;82.10
64817;DHT22;53289;45.602;11.904;2022-11-21T07:45:30;4.50;81.50
64817;DHT22;53289;45.602;11.904;2022-11-21T07:47:57;4.60;80.90
64817;DHT22;53289;45.602;11.904;2022-11-21T07:50:23;4.60;80.70
64817;DHT22;53289;45.602;11.904;2022-11-21T07:52:49;4.70;81.00
64817;DHT22;53289;45.602;11.904;2022-11-21T07:55:15;4.80;81.70
64817;DHT22;53289;45.602;11.904;2022-11-21T07:57:41;4.90;82.10
64817;DHT22;53289;45.602;11.904;2022-11-21T08:00:08;5.00;80.80
64817;DHT22;53289;45.602;11.904;2022-11-21T08:02:34;5.10;80.60
64817;DHT22;53289;45.602;11.904;2022-11-21T08:04:59;5.20;80.80
64817;DHT22;53289;45.602;11.904;2022-11-21T08:07:25;5.30;80.60
64817;DHT22;53289;45.602;11.904;2022-11-21T08:09:51;5.50;82.60
64817;DHT22;53289;45.602;11.904;2022-11-21T08:12:16;5.60;83.80
64817;DHT22;53289;45.602;11.904;2022-11-21T08:14:42;5.70;83.20
64817;DHT22;53289;45.602;11.904;2022-11-21T08:17:08;5.70;83.30
64817;DHT22;53289;45.602;11.904;2022-11-21T08:19:34;5.90;83.50
64817;DHT22;53289;45.602;11.904;2022-11-21T08:22:00;5.90;83.30
64817;DHT22;53289;45.602;11.904;2022-11-21T08:24:26;6.10;83.30
64817;DHT22;53289;45.602;11.904;2022-11-21T08:26:52;6.20;81.20
64817;DHT22;53289;45.602;11.904;2022-11-21T08:29:18;6.30;82.30
64817;DHT22;53289;45.602;11.904;2022-11-21T08:31:44;6.40;82.20
64817;DHT22;53289;45.602;11.904;2022-11-21T08:34:10;6.60;81.30
64817;DHT22;53289;45.602;11.904;2022-11-21T08:36:37;6.80;80.10
64817;DHT22;53289;45.602;11.904;2022-11-21T08:39:03;7.00;79.50
64817;DHT22;53289;45.602;11.904;2022-11-21T08:41:29;7.20;79.40
64817;DHT22;53289;45.602;11.904;2022-11-21T08:44:13;7.40;79.00
64817;DHT22;53289;45.602;11.904;2022-11-21T08:46:39;7.70;78.30
64817;DHT22;53289;45.602;11.904;2022-11-21T08:49:06;7.90;77.90
64817;DHT22;53289;45.602;11.904;2022-11-21T08:51:33;8.20;77.80
64817;DHT22;53289;45.602;11.904;2022-11-21T08:53:59;8.50;77.50
64817;DHT22;53289;45.602;11.904;2022-11-21T08:56:25;8.70;77.10
64817;DHT22;53289;45.602;11.904;2022-11-21T08:58:52;8.90;76.90
64817;DHT22;53289;45.602;11.904;2022-11-21T09:01:18;9.10;76.80
64817;DHT22;53289;45.602;11.904;2022-11-21T09:03:44;9.40;76.30
64817;DHT22;53289;45.602;11.904;2022-11-21T09:06:10;9.60;76.40
64817;DHT22;53289;45.602;11.904;2022-11-21T09:08:36;9.80;76.10
64817;DHT22;53289;45.602;11.904;2022-11-21T09:11:07;10.10;75.90
64817;DHT22;53289;45.602;11.904;2022-11-21T09:13:34;10.40;75.70
64817;DHT22;53289;45.602;11.904;2022-11-21T09:16:01;10.70;75.30
64817;DHT22;53289;45.602;11.904;2022-11-21T09:18:45;10.90;74.80
64817;DHT22;53289;45.602;11.904;2022-11-21T09:21:15;11.20;74.50
64817;DHT22;53289;45.602;11.904;2022-11-21T09:23:42;11.40;74.10
64817;DHT22;53289;45.602;11.904;2022-11-21T09:26:08;11.60;73.40
64817;DHT22;53289;45.602;11.904;2022-11-21T09:28:34;11.60;73.20
64817;DHT22;53289;45.602;11.904;2022-11-21T09:31:04;11.70;73.40
64817;DHT22;53289;45.602;11.904;2022-11-21T09:33:30;11.90;73.40
64817;DHT22;53289;45.602;11.904;2022-11-21T09:35:59;12.10;73.20
64817;DHT22;53289;45.602;11.904;2022-11-21T09:38:26;12.30;72.20
64817;DHT22;53289;45.602;11.904;2022-11-21T09:49:43;12.70;71.70
64817;DHT22;53289;45.602;11.904;2022-11-21T09:52:12;12.80;70.70
64817;DHT22;53289;45.602;11.904;2022-11-21T09:54:47;12.80;70.40
64817;DHT22;53289;45.602;11.904;2022-11-21T09:57:17;12.80;70.70
64817;DHT22;53289;45.602;11.904;2022-11-21T09:59:44;12.90;70.00
64817;DHT22;53289;45.602;11.904;2022-11-21T10:02:15;13.10;70.00
64817;DHT22;53289;45.602;11.904;2022-11-21T10:04:43;13.50;69.70
64817;DHT22;53289;45.602;11.904;2022-11-21T10:09:59;14.10;65.80
64817;DHT22;53289;45.602;11.904;2022-11-21T10:12:39;14.10;66.30
64817;DHT22;53289;45.602;11.904;2022-11-21T10:15:54;14.20;66.20
64817;DHT22;53289;45.602;11.904;2022-11-21T10:31:45;15.50;62.60
64817;DHT22;53289;45.602;11.904;2022-11-21T10:34:15;15.60;61.80
64817;DHT22;53289;45.602;11.904;2022-11-21T10:36:44;15.80;61.40
64817;DHT22;53289;45.602;11.904;2022-11-21T10:40:06;15.90;60.80
64817;DHT22;53289;45.602;11.904;2022-11-21T10:45:20;16.20;59.20
64817;DHT22;53289;45.602;11.904;2022-11-21T10:47:49;16.50;59.00
64817;DHT22;53289;45.602;11.904;2022-11-21T10:50:32;16.60;58.40
64817;DHT22;53289;45.602;11.904;2022-11-21T10:53:18;16.80;57.90
64817;DHT22;53289;45.602;11.904;2022-11-21T10:56:16;17.10;57.50
64817;DHT22;53289;45.602;11.904;2022-11-21T10:58:47;17.30;56.30
64817;DHT22;53289;45.602;11.904;2022-11-21T11:01:31;17.60;55.00
64817;DHT22;53289;45.602;11.904;2022-11-21T11:06:41;18.30;53.50
64817;DHT22;53289;45.602;11.904;2022-11-21T11:09:22;18.50;52.60
64817;DHT22;53289;45.602;11.904;2022-11-21T11:11:49;18.80;51.30
64817;DHT22;53289;45.602;11.904;2022-11-21T11:14:30;19.00;50.70
64817;DHT22;53289;45.602;11.904;2022-11-21T11:16:57;19.20;50.30
64817;DHT22;53289;45.602;11.904;2022-11-21T11:19:27;19.30;50.30
64817;DHT22;53289;45.602;11.904;2022-11-21T11:21:54;19.30;50.10
64817;DHT22;53289;45.602;11.904;2022-11-21T11:24:25;19.40;49.30
64817;DHT22;53289;45.602;11.904;2022-11-21T11:27:01;19.40;44.30
64817;DHT22;53289;45.602;11.904;2022-11-21T11:29:29;19.50;48.40
64817;DHT22;53289;45.602;11.904;2022-11-21T11:32:02;19.70;48.40
64817;DHT22;53289;45.602;11.904;2022-11-21T11:34:40;19.70;48.80
64817;DHT22;53289;45.602;11.904;2022-11-21T11:40:39;19.90;47.50
64817;DHT22;53289;45.602;11.904;2022-11-21T11:48:36;20.30;46.70
64817;DHT22;53289;45.602;11.904;2022-11-21T11:51:20;20.40;47.10
64817;DHT22;53289;45.602;11.904;2022-11-21T11:53:52;20.50;45.40
64817;DHT22;53289;45.602;11.904;2022-11-21T11:59:02;20.60;45.00
64817;DHT22;53289;45.602;11.904;2022-11-21T12:12:34;20.40;44.90
64817;DHT22;53289;45.602;11.904;2022-11-21T12:15:22;20.10;45.60
64817;DHT22;53289;45.602;11.904;2022-11-21T12:21:06;19.10;46.70
64817;DHT22;53289;45.602;11.904;2022-11-21T12:28:59;18.50;47.90
64817;DHT22;53289;45.602;11.904;2022-11-21T12:40:56;19.00;45.80
64817;DHT22;53289;45.602;11.904;2022-11-21T12:42:57;19.20;45.50
64817;DHT22;53289;45.602;11.904;2022-11-21T12:56:54;18.90;44.60
64817;DHT22;53289;45.602;11.904;2022-11-21T12:59:23;18.60;46.60
64817;DHT22;53289;45.602;11.904;2022-11-21T13:04:30;18.80;47.20
64817;DHT22;53289;45.602;11.904;2022-11-21T13:06:58;18.90;47.20
64817;DHT22;53289;45.602;11.904;2022-11-21T13:09:26;19.00;46.80
64817;DHT22;53289;45.602;11.904;2022-11-21T13:12:22;18.90;46.80
64817;DHT22;53289;45.602;11.904;2022-11-21T13:15:01;18.90;46.70
64817;DHT22;53289;45.602;11.904;2022-11-21T13:17:52;18.90;46.10
64817;DHT22;53289;45.602;11.904;2022-11-21T13:22:53;18.00;46.50
64817;DHT22;53289;45.602;11.904;2022-11-21T13:30:53;16.90;49.90
64817;DHT22;53289;45.602;11.904;2022-11-21T13:36:11;16.40;51.30
64817;DHT22;53289;45.602;11.904;2022-11-21T13:55:07;15.20;54.10
64817;DHT22;53289;45.602;11.904;2022-11-21T13:57:50;15.10;54.60
64817;DHT22;53289;45.602;11.904;2022-11-21T14:00:37;15.10;55.00
64817;DHT22;53289;45.602;11.904;2022-11-21T14:03:16;15.10;55.00
64817;DHT22;53289;45.602;11.904;2022-11-21T14:06:13;15.10;54.90
64817;DHT22;53289;45.602;11.904;2022-11-21T14:08:43;15.10;54.70
64817;DHT22;53289;45.602;11.904;2022-11-21T14:14:43;15.20;54.50
64817;DHT22;53289;45.602;11.904;2022-11-21T14:20:18;15.10;54.30
64817;DHT22;53289;45.602;11.904;2022-11-21T14:27:59;15.10;54.30
64817;DHT22;53289;45.602;11.904;2022-11-21T14:30:37;15.20;54.40
64817;DHT22;53289;45.602;11.904;2022-11-21T14:38:59;14.90;54.80
64817;DHT22;53289;45.602;11.904;2022-11-21T14:41:26;14.80;55.00
64817;DHT22;53289;45.602;11.904;2022-11-21T14:46:35;14.50;55.40
64817;DHT22;53289;45.602;11.904;2022-11-21T14:52:32;14.20;56.10
64817;DHT22;53289;45.602;11.904;2022-11-21T14:54:45;13.90;56.70
64817;DHT22;53289;45.602;11.904;2022-11-21T14:57:26;13.70;57.30
64817;DHT22;53289;45.602;11.904;2022-11-21T14:59:53;13.60;57.90
64817;DHT22;53289;45.602;11.904;2022-11-21T15:02:24;13.40;58.20
64817;DHT22;53289;45.602;11.904;2022-11-21T15:04:52;13.30;58.70
64817;DHT22;53289;45.602;11.904;2022-11-21T15:09:46;12.90;59.50
64817;DHT22;53289;45.602;11.904;2022-11-21T15:12:18;12.70;59.90
64817;DHT22;53289;45.602;11.904;2022-11-21T15:14:51;12.60;60.30
64817;DHT22;53289;45.602;11.904;2022-11-21T15:17:21;12.40;60.70
64817;DHT22;53289;45.602;11.904;2022-11-21T15:22:38;12.30;61.10
64817;DHT22;53289;45.602;11.904;2022-11-21T15:25:19;12.10;61.30
64817;DHT22;53289;45.602;11.904;2022-11-21T15:27:47;12.00;61.60
64817;DHT22;53289;45.602;11.904;2022-11-21T15:33:02;11.80;62.10
64817;DHT22;53289;45.602;11.904;2022-11-21T15:38:27;11.50;62.90
64817;DHT22;53289;45.602;11.904;2022-11-21T15:43:47;11.20;63.60
64817;DHT22;53289;45.602;11.904;2022-11-21T15:46:31;10.90;64.10
64817;DHT22;53289;45.602;11.904;2022-11-21T15:48:59;10.80;64.40
64817;DHT22;53289;45.602;11.904;2022-11-21T15:51:33;10.70;64.70
64817;DHT22;53289;45.602;11.904;2022-11-21T15:54:00;10.60;64.90
64817;DHT22;53289;45.602;11.904;2022-11-21T15:56:26;10.40;65.30
64817;DHT22;53289;45.602;11.904;2022-11-21T15:58:52;10.30;65.60
64817;DHT22;53289;45.602;11.904;2022-11-21T16:01:23;10.20;65.70
64817;DHT22;53289;45.602;11.904;2022-11-21T16:03:51;10.20;66.10
64817;DHT22;53289;45.602;11.904;2022-11-21T16:06:18;10.10;66.40
64817;DHT22;53289;45.602;11.904;2022-11-21T16:08:45;10.00;66.40
64817;DHT22;53289;45.602;11.904;2022-11-21T16:11:31;9.90;66.80
64817;DHT22;53289;45.602;11.904;2022-11-21T16:14:02;9.90;66.80
64817;DHT22;53289;45.602;11.904;2022-11-21T16:16:31;9.90;67.30
64817;DHT22;53289;45.602;11.904;2022-11-21T16:18:58;9.80;67.30
64817;DHT22;53289;45.602;11.904;2022-11-21T16:21:27;9.80;67.60
64817;DHT22;53289;45.602;11.904;2022-11-21T16:23:54;9.70;67.70
64817;DHT22;53289;45.602;11.904;2022-11-21T16:26:20;9.60;67.60
64817;DHT22;53289;45.602;11.904;2022-11-21T16:28:47;9.60;67.90
64817;DHT22;53289;45.602;11.904;2022-11-21T16:31:29;9.60;67.70
64817;DHT22;53289;45.602;11.904;2022-11-21T16:33:56;9.50;67.70
64817;DHT22;53289;45.602;11.904;2022-11-21T16:36:25;9.50;67.70
64817;DHT22;53289;45.602;11.904;2022-11-21T16:38:52;9.40;68.00
64817;DHT22;53289;45.602;11.904;2022-11-21T16:41:20;9.40;68.20
64817;DHT22;53289;45.602;11.904;2022-11-21T16:43:48;9.30;68.10
64817;DHT22;53289;45.602;11.904;2022-11-21T16:46:15;9.20;68.20
64817;DHT22;53289;45.602;11.904;2022-11-21T16:48:41;9.20;68.20
64817;DHT22;53289;45.602;11.904;2022-11-21T16:51:12;9.20;68.30
64817;DHT22;53289;45.602;11.904;2022-11-21T16:53:39;9.20;68.30
64817;DHT22;53289;45.602;11.904;2022-11-21T16:56:07;9.10;68.30
64817;DHT22;53289;45.602;11.904;2022-11-21T16:58:35;9.10;69.20
64817;DHT22;53289;45.602;11.904;2022-11-21T17:03:36;9.00;69.00
64817;DHT22;53289;45.602;11.904;2022-11-21T17:06:02;9.00;69.10
64817;DHT22;53289;45.602;11.904;2022-11-21T17:08:28;8.90;69.50
64817;DHT22;53289;45.602;11.904;2022-11-21T17:10:54;8.90;69.60
64817;DHT22;53289;45.602;11.904;2022-11-21T17:13:20;8.80;69.70
64817;DHT22;53289;45.602;11.904;2022-11-21T17:15:47;8.80;69.80
64817;DHT22;53289;45.602;11.904;2022-11-21T17:18:12;8.70;69.70
64817;DHT22;53289;45.602;11.904;2022-11-21T17:20:39;8.70;70.30
64817;DHT22;53289;45.602;11.904;2022-11-21T17:23:04;8.60;70.10
64817;DHT22;53289;45.602;11.904;2022-11-21T17:25:31;8.50;69.90
64817;DHT22;53289;45.602;11.904;2022-11-21T17:27:57;8.40;70.00
64817;DHT22;53289;45.602;11.904;2022-11-21T17:30:23;8.40;70.10
64817;DHT22;53289;45.602;11.904;2022-11-21T17:32:49;8.40;70.40
64817;DHT22;53289;45.602;11.904;2022-11-21T17:35:15;8.40;70.40
64817;DHT22;53289;45.602;11.904;2022-11-21T17:37:41;8.40;70.50
64817;DHT22;53289;45.602;11.904;2022-11-21T17:40:07;8.30;71.20
64817;DHT22;53289;45.602;11.904;2022-11-21T17:42:37;8.20;71.10
64817;DHT22;53289;45.602;11.904;2022-11-21T17:45:07;8.10;71.40
64817;DHT22;53289;45.602;11.904;2022-11-21T17:47:33;8.10;70.90
64817;DHT22;53289;45.602;11.904;2022-11-21T17:49:59;8.00;71.30
64817;DHT22;53289;45.602;11.904;2022-11-21T17:52:24;7.90;72.00
64817;DHT22;53289;45.602;11.904;2022-11-21T17:54:50;7.90;72.10
64817;DHT22;53289;45.602;11.904;2022-11-21T17:57:17;7.70;74.10
64817;DHT22;53289;45.602;11.904;2022-11-21T17:59:43;7.60;74.70
64817;DHT22;53289;45.602;11.904;2022-11-21T18:02:09;7.50;74.00
64817;DHT22;53289;45.602;11.904;2022-11-21T18:04:36;7.50;74.80
64817;DHT22;53289;45.602;11.904;2022-11-21T18:07:04;7.50;75.10
64817;DHT22;53289;45.602;11.904;2022-11-21T18:09:31;7.40;74.20
64817;DHT22;53289;45.602;11.904;2022-11-21T18:11:57;7.40;73.70
64817;DHT22;53289;45.602;11.904;2022-11-21T18:14:23;7.40;73.30
64817;DHT22;53289;45.602;11.904;2022-11-21T18:16:49;7.40;73.30